Time;durP1;ratioP1;P1;durP2;ratioP2;P2;SDS_P1;SDS_P2;PMS_P1;PMS_P2;Temp;Humidity;BMP_temperature;BMP_pressure;BME280_temperature;BME280_humidity;BME280_pressure;Samples;Min_cycle;Max_cycle;Signal;HPM_P1;HPM_P2
2023/07/30 00:02:09;;;;;;;4.68;1.55;;;;;;;;;;4933355;28;99983;-75
2023/07/30 00:04:35;;;;;;;6.82;1.45;;;;;;;;;;4930350;28;99951;-75
2023/07/30 00:07:02;;;;;;;9.38;1.92;;;;;;;;;;4929116;28;98788;-77
2023/07/30 00:09:28;;;;;;;9.30;1.77;;;;;;;;;;4929723;28;99581;-74
2023/07/30 00:11:54;;;;;;;6.35;1.63;;;;;;;;;;4929071;28;100144;-75
2023/07/30 00:14:21;;;;;;;5.80;1.73;;;;;;;;;;4928409;28;99764;-74
2023/07/30 00:16:47;;;;;;;5.97;2.15;;;;;;;;;;4929063;28;99351;-76
2023/07/30 00:19:14;;;;;;;5.25;1.85;;;;;;;;;;4929463;28;99067;-75
2023/07/30 00:21:43;;;;;;;4.43;1.70;;;;;;;;;;4932162;28;98962;-75
2023/07/30 00:24:10;;;;;;;9.15;1.77;;;;;;;;;;4933487;28;99847;-75
2023/07/30 00:26:38;;;;;;;8.77;1.85;;;;;;;;;;4929875;28;100755;-75
2023/07/30 00:29:05;;;;;;;6.40;2.17;;;;;;;;;;4929632;28;98370;-75
2023/07/30 00:31:31;;;;;;;8.93;1.55;;;;;;;;;;4928274;28;101710;-75
2023/07/30 00:33:58;;;;;;;6.40;2.20;;;;;;;;;;4929922;28;99245;-75
2023/07/30 00:36:24;;;;;;;8.60;2.60;;;;;;;;;;4926610;28;100225;-75
2023/07/30 00:38:50;;;;;;;6.93;1.92;;;;;;;;;;4941217;28;98988;-75
2023/07/30 00:41:17;;;;;;;5.45;1.40;;;;;;;;;;4947545;28;99983;-75
2023/07/30 00:43:43;;;;;;;4.28;1.52;;;;;;;;;;4951762;28;99598;-76
2023/07/30 00:46:10;;;;;;;8.60;2.20;;;;;;;;;;4949220;28;98787;-76
2023/07/30 00:48:36;;;;;;;5.90;1.70;;;;;;;;;;4948624;28;99297;-75
2023/07/30 00:51:04;;;;;;;9.50;2.30;;;;;;;;;;4931718;28;101582;-75
2023/07/30 00:53:30;;;;;;;6.55;2.17;;;;;;;;;;4910089;28;98986;-75
2023/07/30 00:55:57;;;;;;;9.75;2.28;;;;;;;;;;4908262;28;100281;-75
2023/07/30 00:58:24;;;;;;;9.00;1.92;;;;;;;;;;4908243;28;98974;-77
2023/07/30 01:00:51;;;;;;;8.48;2.05;;;;;;;;;;4908466;28;101077;-77
2023/07/30 01:03:18;;;;;;;9.98;3.05;;;;;;;;;;4909589;28;99374;-76
2023/07/30 01:05:45;;;;;;;3.28;1.85;;;;;;;;;;4911840;28;99253;-76
2023/07/30 01:08:11;;;;;;;5.55;2.42;;;;;;;;;;4923835;28;99380;-75
2023/07/30 01:10:41;;;;;;;4.10;1.67;;;;;;;;;;4928534;28;99012;-74
2023/07/30 01:13:09;;;;;;;5.78;2.28;;;;;;;;;;4928888;28;98887;-76
2023/07/30 01:15:36;;;;;;;4.10;1.85;;;;;;;;;;4929053;28;99137;-76
2023/07/30 01:18:02;;;;;;;8.18;2.35;;;;;;;;;;4929004;28;98846;-75
2023/07/30 01:20:29;;;;;;;7.35;1.63;;;;;;;;;;4927592;28;100744;-74
2023/07/30 01:22:56;;;;;;;9.85;2.00;;;;;;;;;;4933904;28;99587;-75
2023/07/30 01:25:24;;;;;;;5.72;2.28;;;;;;;;;;4931223;28;100186;-76
2023/07/30 01:27:54;;;;;;;8.75;1.88;;;;;;;;;;4931349;28;99600;-75
2023/07/30 01:30:22;;;;;;;4.55;1.70;;;;;;;;;;4928844;28;99226;-75
2023/07/30 01:32:52;;;;;;;7.45;1.95;;;;;;;;;;4928354;28;98809;-75
2023/07/30 01:35:24;;;;;;;4.72;1.83;;;;;;;;;;4927163;28;100247;-74
2023/07/30 01:37:51;;;;;;;9.90;2.80;;;;;;;;;;4928236;28;98942;-74
2023/07/30 01:40:18;;;;;;;10.13;2.75;;;;;;;;;;4927040;28;100882;-75
2023/07/30 01:42:44;;;;;;;9.68;2.00;;;;;;;;;;4928904;28;98802;-75
2023/07/30 01:45:11;;;;;;;8.35;2.15;;;;;;;;;;4928324;28;98992;-75
2023/07/30 01:47:37;;;;;;;8.35;2.10;;;;;;;;;;4928345;28;99105;-75
2023/07/30 01:50:04;;;;;;;4.55;1.85;;;;;;;;;;4931514;28;99873;-75
2023/07/30 01:52:31;;;;;;;5.90;2.22;;;;;;;;;;4925793;28;101705;-76
2023/07/30 01:54:58;;;;;;;5.53;2.15;;;;;;;;;;4927393;28;100888;-75
2023/07/30 01:57:25;;;;;;;5.03;1.90;;;;;;;;;;4928195;28;100316;-76
2023/07/30 01:59:51;;;;;;;6.88;2.00;;;;;;;;;;4926232;28;101006;-75
2023/07/30 02:02:18;;;;;;;9.68;2.10;;;;;;;;;;4926783;28;102011;-75
2023/07/30 02:04:44;;;;;;;6.35;2.22;;;;;;;;;;4928743;28;98907;-76
2023/07/30 02:07:11;;;;;;;7.88;1.75;;;;;;;;;;4928658;28;99336;-75
2023/07/30 02:09:37;;;;;;;5.32;2.17;;;;;;;;;;4946349;28;100005;-75
2023/07/30 02:12:04;;;;;;;7.10;2.83;;;;;;;;;;4935271;28;98478;-75
2023/07/30 02:14:30;;;;;;;7.20;2.30;;;;;;;;;;4906340;28;100951;-75
2023/07/30 02:17:00;;;;;;;10.57;2.70;;;;;;;;;;4926418;28;100913;-75
2023/07/30 02:19:26;;;;;;;8.23;2.28;;;;;;;;;;4926513;28;101489;-75
2023/07/30 02:21:53;;;;;;;10.07;2.78;;;;;;;;;;4927573;28;99048;-74
2023/07/30 02:24:19;;;;;;;11.50;2.58;;;;;;;;;;4928172;28;99011;-75
2023/07/30 02:26:46;;;;;;;10.93;2.08;;;;;;;;;;4927742;28;100195;-75
2023/07/30 02:29:12;;;;;;;15.20;3.03;;;;;;;;;;4927199;28;99887;-75
2023/07/30 02:31:39;;;;;;;9.07;2.22;;;;;;;;;;4931489;28;98990;-76
2023/07/30 02:34:07;;;;;;;13.75;3.85;;;;;;;;;;4927354;28;99824;-75
2023/07/30 02:36:34;;;;;;;11.63;2.88;;;;;;;;;;4927107;28;99370;-76
2023/07/30 02:39:00;;;;;;;15.55;3.40;;;;;;;;;;4929666;28;99095;-75
2023/07/30 02:41:28;;;;;;;12.90;2.33;;;;;;;;;;4929245;28;100720;-76
2023/07/30 02:43:54;;;;;;;9.43;2.38;;;;;;;;;;4931511;28;98926;-74
2023/07/30 02:46:21;;;;;;;16.95;2.85;;;;;;;;;;4931421;28;99522;-75
2023/07/30 02:48:47;;;;;;;24.30;3.10;;;;;;;;;;4930235;28;99465;-76
2023/07/30 02:51:14;;;;;;;16.67;2.85;;;;;;;;;;4931279;28;98793;-75
2023/07/30 02:53:42;;;;;;;9.70;2.50;;;;;;;;;;4934616;28;98971;-75
2023/07/30 02:56:08;;;;;;;14.65;3.05;;;;;;;;;;4930802;28;98922;-74
2023/07/30 02:58:35;;;;;;;15.30;3.60;;;;;;;;;;4930852;28;98552;-75
2023/07/30 03:01:05;;;;;;;13.30;2.97;;;;;;;;;;4931168;28;100213;-76
2023/07/30 03:03:31;;;;;;;9.90;2.47;;;;;;;;;;4928243;28;101953;-75
2023/07/30 03:05:58;;;;;;;13.45;2.78;;;;;;;;;;4929443;28;101561;-76
2023/07/30 03:08:24;;;;;;;12.10;2.75;;;;;;;;;;4945030;28;99236;-76
2023/07/30 03:10:51;;;;;;;16.48;2.95;;;;;;;;;;4949831;28;98936;-76
2023/07/30 03:13:18;;;;;;;15.15;2.92;;;;;;;;;;4949951;28;99964;-75
2023/07/30 03:15:46;;;;;;;14.93;2.53;;;;;;;;;;4953422;28;99246;-75
2023/07/30 03:18:14;;;;;;;10.18;2.95;;;;;;;;;;4949724;28;98413;-75
2023/07/30 03:20:40;;;;;;;11.13;2.55;;;;;;;;;;4950928;28;98591;-76
2023/07/30 03:23:07;;;;;;;15.75;3.55;;;;;;;;;;4939696;28;102033;-75
2023/07/30 03:25:33;;;;;;;8.35;3.33;;;;;;;;;;4911233;28;98923;-75
2023/07/30 03:27:59;;;;;;;17.60;3.53;;;;;;;;;;4910713;28;100645;-75
2023/07/30 03:30:26;;;;;;;14.68;3.22;;;;;;;;;;4910671;28;99061;-75
2023/07/30 03:32:53;;;;;;;15.13;5.07;;;;;;;;;;4911445;28;99197;-76
2023/07/30 03:35:19;;;;;;;16.38;3.15;;;;;;;;;;4923861;28;100200;-75
2023/07/30 03:37:46;;;;;;;14.70;3.42;;;;;;;;;;4941777;28;98710;-75
2023/07/30 03:40:12;;;;;;;15.52;3.95;;;;;;;;;;4942822;28;100169;-75
2023/07/30 03:42:39;;;;;;;15.25;3.78;;;;;;;;;;4928687;28;100931;-75
2023/07/30 03:45:05;;;;;;;20.00;4.38;;;;;;;;;;4928518;28;101764;-76
2023/07/30 03:47:32;;;;;;;17.27;4.10;;;;;;;;;;4929830;28;99043;-75
2023/07/30 03:49:59;;;;;;;19.30;4.05;;;;;;;;;;4929601;28;98949;-76
2023/07/30 03:52:25;;;;;;;16.08;4.00;;;;;;;;;;4929879;28;99260;-76
2023/07/30 03:54:52;;;;;;;22.77;4.53;;;;;;;;;;4928978;28;100261;-75
2023/07/30 03:57:18;;;;;;;23.70;4.18;;;;;;;;;;4931007;28;99964;-77
2023/07/30 03:59:46;;;;;;;25.80;4.35;;;;;;;;;;4931519;28;101650;-74
2023/07/30 04:02:15;;;;;;;21.75;4.22;;;;;;;;;;4929942;28;98778;-75
2023/07/30 04:04:46;;;;;;;18.95;4.30;;;;;;;;;;4928675;28;101005;-75
2023/07/30 04:07:12;;;;;;;16.42;4.05;;;;;;;;;;4929346;28;99063;-76
2023/07/30 04:09:39;;;;;;;23.85;4.20;;;;;;;;;;4929201;28;102251;-75
2023/07/30 04:12:05;;;;;;;17.80;3.92;;;;;;;;;;4927730;28;99277;-75
2023/07/30 04:14:32;;;;;;;13.80;4.03;;;;;;;;;;4915960;28;101487;-75
2023/07/30 04:16:58;;;;;;;25.95;4.20;;;;;;;;;;4910353;28;99342;-75
2023/07/30 04:19:25;;;;;;;21.17;5.03;;;;;;;;;;4912857;28;99808;-75
2023/07/30 04:21:51;;;;;;;16.38;4.03;;;;;;;;;;4929866;28;99316;-76
2023/07/30 04:24:18;;;;;;;18.95;5.57;;;;;;;;;;4928295;28;101612;-75
2023/07/30 04:26:44;;;;;;;18.85;4.43;;;;;;;;;;4927639;28;100249;-75
2023/07/30 04:29:14;;;;;;;26.83;4.45;;;;;;;;;;4928147;28;99092;-75
2023/07/30 04:31:40;;;;;;;19.02;5.25;;;;;;;;;;4929466;28;101162;-75
2023/07/30 04:34:07;;;;;;;26.98;4.38;;;;;;;;;;4929432;28;99565;-75
2023/07/30 04:36:33;;;;;;;19.30;4.32;;;;;;;;;;4927672;28;100712;-75
2023/07/30 04:39:00;;;;;;;31.42;5.28;;;;;;;;;;4928454;28;101087;-76
2023/07/30 04:41:30;;;;;;;20.67;4.72;;;;;;;;;;4929890;28;100069;-75
2023/07/30 04:44:01;;;;;;;24.52;4.85;;;;;;;;;;4928397;28;101913;-75
2023/07/30 04:46:29;;;;;;;23.35;4.95;;;;;;;;;;4927964;28;101257;-75
2023/07/30 04:48:56;;;;;;;26.35;5.80;;;;;;;;;;4926899;28;100230;-75
2023/07/30 04:51:23;;;;;;;30.13;6.05;;;;;;;;;;4927880;28;99241;-76
2023/07/30 04:53:49;;;;;;;28.92;6.18;;;;;;;;;;4927933;28;102178;-76
2023/07/30 04:56:16;;;;;;;24.20;5.45;;;;;;;;;;4927417;28;99819;-75
2023/07/30 04:58:42;;;;;;;29.00;5.40;;;;;;;;;;4928697;28;102055;-75
2023/07/30 05:01:09;;;;;;;26.15;5.32;;;;;;;;;;4927729;28;101899;-77
2023/07/30 05:03:35;;;;;;;23.90;4.63;;;;;;;;;;4930736;28;98800;-76
2023/07/30 05:06:02;;;;;;;29.27;6.63;;;;;;;;;;4928394;28;100329;-75
2023/07/30 05:08:29;;;;;;;16.05;4.35;;;;;;;;;;4929960;28;100119;-74
2023/07/30 05:10:55;;;;;;;36.72;6.20;;;;;;;;;;4928446;28;98837;-75
2023/07/30 05:13:22;;;;;;;19.45;4.72;;;;;;;;;;4928491;28;99687;-76
2023/07/30 05:15:48;;;;;;;23.20;4.80;;;;;;;;;;4928180;28;100139;-76
2023/07/30 05:18:15;;;;;;;25.40;4.80;;;;;;;;;;4928710;28;100199;-76
2023/07/30 05:20:41;;;;;;;20.00;4.65;;;;;;;;;;4928917;28;100031;-74
2023/07/30 05:23:08;;;;;;;28.58;5.40;;;;;;;;;;4928533;28;98979;-74
2023/07/30 05:25:35;;;;;;;27.85;4.80;;;;;;;;;;4931789;28;98466;-75
2023/07/30 05:28:02;;;;;;;23.38;5.28;;;;;;;;;;4928767;28;99186;-75
2023/07/30 05:30:29;;;;;;;27.38;6.40;;;;;;;;;;4927404;28;99582;-76
2023/07/30 05:32:55;;;;;;;24.85;5.20;;;;;;;;;;4928712;28;99315;-74
2023/07/30 05:35:22;;;;;;;23.63;5.55;;;;;;;;;;4921422;28;98889;-74
2023/07/30 05:37:51;;;;;;;23.23;4.97;;;;;;;;;;4922742;28;99297;-75
2023/07/30 05:40:17;;;;;;;30.05;5.70;;;;;;;;;;4937042;28;99306;-75
2023/07/30 05:42:43;;;;;;;20.73;5.05;;;;;;;;;;4948096;28;99922;-75
2023/07/30 05:45:10;;;;;;;26.10;5.55;;;;;;;;;;4946928;28;99026;-76
2023/07/30 05:47:36;;;;;;;26.75;5.20;;;;;;;;;;4950784;28;98598;-76
2023/07/30 05:50:03;;;;;;;25.10;4.93;;;;;;;;;;4948085;28;99223;-76
2023/07/30 05:52:30;;;;;;;21.50;4.63;;;;;;;;;;4946875;28;99439;-75
2023/07/30 05:54:56;;;;;;;15.73;4.50;;;;;;;;;;4947428;28;99249;-74
2023/07/30 05:57:22;;;;;;;20.38;4.65;;;;;;;;;;4932024;28;100772;-75
2023/07/30 05:59:49;;;;;;;22.30;5.57;;;;;;;;;;4927455;28;100667;-75
2023/07/30 06:02:15;;;;;;;16.50;5.40;;;;;;;;;;4927599;28;99069;-75
2023/07/30 06:04:42;;;;;;;18.88;4.60;;;;;;;;;;4927778;28;99219;-75
2023/07/30 06:07:08;;;;;;;23.33;4.82;;;;;;;;;;4927662;28;99410;-76
2023/07/30 06:09:35;;;;;;;14.25;4.78;;;;;;;;;;4931237;28;98913;-75
2023/07/30 06:12:01;;;;;;;24.55;5.20;;;;;;;;;;4927970;28;98588;-75
2023/07/30 06:14:28;;;;;;;17.25;4.55;;;;;;;;;;4914498;28;98851;-75
2023/07/30 06:16:54;;;;;;;12.35;3.63;;;;;;;;;;4908960;28;99963;-75
2023/07/30 06:19:21;;;;;;;19.83;5.57;;;;;;;;;;4907493;28;100776;-75
2023/07/30 06:21:47;;;;;;;21.83;5.55;;;;;;;;;;4908923;28;99073;-75
2023/07/30 06:24:14;;;;;;;14.18;4.53;;;;;;;;;;4908376;28;99064;-74
2023/07/30 06:26:40;;;;;;;20.73;4.30;;;;;;;;;;4907996;28;100384;-75
2023/07/30 06:29:07;;;;;;;19.77;5.03;;;;;;;;;;4911907;28;98939;-75
2023/07/30 06:31:33;;;;;;;22.40;4.97;;;;;;;;;;4925020;28;99447;-76
2023/07/30 06:34:00;;;;;;;19.60;5.65;;;;;;;;;;4927310;28;98839;-76
2023/07/30 06:36:26;;;;;;;13.93;5.18;;;;;;;;;;4931778;28;99595;-76
2023/07/30 06:38:53;;;;;;;17.83;5.15;;;;;;;;;;4947369;28;99467;-76
2023/07/30 06:41:21;;;;;;;19.23;4.47;;;;;;;;;;4933309;28;99277;-75
2023/07/30 06:43:47;;;;;;;17.88;4.82;;;;;;;;;;4927448;28;100132;-74
2023/07/30 06:46:13;;;;;;;18.90;4.78;;;;;;;;;;4927458;28;100478;-75
2023/07/30 06:48:40;;;;;;;29.92;6.53;;;;;;;;;;4926059;28;99142;-76
2023/07/30 06:51:07;;;;;;;23.40;7.70;;;;;;;;;;4930924;28;100525;-74
2023/07/30 06:53:33;;;;;;;23.67;5.57;;;;;;;;;;4927550;28;100087;-75
2023/07/30 06:56:00;;;;;;;12.75;4.57;;;;;;;;;;4926869;28;99139;-74
2023/07/30 06:58:26;;;;;;;14.90;5.05;;;;;;;;;;4927270;28;99348;-74
2023/07/30 07:00:53;;;;;;;20.33;4.85;;;;;;;;;;4927438;28;99748;-74
2023/07/30 07:03:19;;;;;;;21.48;5.35;;;;;;;;;;4925080;28;98503;-74
2023/07/30 07:05:52;;;;;;;21.98;4.80;;;;;;;;;;4925840;28;99739;-75
2023/07/30 07:08:18;;;;;;;16.52;4.70;;;;;;;;;;4919618;28;99698;-77
2023/07/30 07:10:45;;;;;;;15.60;4.22;;;;;;;;;;4917109;28;100686;-77
2023/07/30 07:13:14;;;;;;;18.85;5.30;;;;;;;;;;4927734;28;99857;-77
2023/07/30 07:15:41;;;;;;;19.25;4.85;;;;;;;;;;4924793;28;100197;-75
2023/07/30 07:18:08;;;;;;;15.68;4.00;;;;;;;;;;4924501;28;100019;-76
2023/07/30 07:20:34;;;;;;;20.90;5.18;;;;;;;;;;4927488;28;99152;-77
2023/07/30 07:23:01;;;;;;;17.98;4.47;;;;;;;;;;4927180;28;99490;-75
2023/07/30 07:25:27;;;;;;;13.60;3.65;;;;;;;;;;4927067;28;99824;-76
2023/07/30 07:27:54;;;;;;;14.30;4.05;;;;;;;;;;4917442;28;100446;-75
2023/07/30 07:30:20;;;;;;;29.23;4.40;;;;;;;;;;4908826;28;99093;-76
2023/07/30 07:32:50;;;;;;;18.60;3.58;;;;;;;;;;4922972;28;101208;-77
2023/07/30 07:35:18;;;;;;;12.38;3.42;;;;;;;;;;4931162;28;99077;-75
2023/07/30 07:37:45;;;;;;;20.08;4.18;;;;;;;;;;4925135;28;99505;-76
2023/07/30 07:40:11;;;;;;;16.00;3.95;;;;;;;;;;4923475;28;100305;-75
2023/07/30 07:42:39;;;;;;;11.43;3.63;;;;;;;;;;4925351;28;99474;-76
2023/07/30 07:45:06;;;;;;;14.25;3.45;;;;;;;;;;4926721;28;100335;-77
2023/07/30 07:47:32;;;;;;;17.85;4.32;;;;;;;;;;4926044;28;100128;-77
2023/07/30 07:50:00;;;;;;;22.70;3.67;;;;;;;;;;4929011;28;99024;-77
2023/07/30 07:52:27;;;;;;;14.43;3.38;;;;;;;;;;4922900;28;99576;-76
2023/07/30 07:54:53;;;;;;;19.45;3.65;;;;;;;;;;4929798;28;98923;-78
2023/07/30 07:57:19;;;;;;;12.90;3.55;;;;;;;;;;4927535;28;99954;-78
2023/07/30 07:59:46;;;;;;;17.83;3.75;;;;;;;;;;4912819;28;100603;-76
2023/07/30 08:02:13;;;;;;;11.55;3.15;;;;;;;;;;4927844;28;100075;-79
2023/07/30 08:04:40;;;;;;;16.10;3.33;;;;;;;;;;4927404;28;99969;-77
2023/07/30 08:07:07;;;;;;;13.80;3.50;;;;;;;;;;4928595;28;99074;-77
2023/07/30 08:09:36;;;;;;;20.88;3.33;;;;;;;;;;4927437;28;100651;-77
2023/07/30 08:12:02;;;;;;;24.15;4.43;;;;;;;;;;4929090;28;99741;-77
2023/07/30 08:14:29;;;;;;;10.63;3.08;;;;;;;;;;4930254;28;100041;-76
2023/07/30 08:16:56;;;;;;;15.15;3.53;;;;;;;;;;4929949;28;98791;-76
2023/07/30 08:19:22;;;;;;;9.25;3.33;;;;;;;;;;4932352;28;100345;-77
2023/07/30 08:21:49;;;;;;;12.77;3.25;;;;;;;;;;4929538;28;99177;-77
2023/07/30 08:24:15;;;;;;;14.70;3.58;;;;;;;;;;4929367;28;99539;-77
2023/07/30 08:26:41;;;;;;;17.42;3.45;;;;;;;;;;4928895;28;98954;-77
2023/07/30 08:29:10;;;;;;;8.52;3.20;;;;;;;;;;4916861;28;100160;-77
2023/07/30 08:31:36;;;;;;;10.07;2.75;;;;;;;;;;4920861;28;100090;-77
2023/07/30 08:34:03;;;;;;;18.98;3.45;;;;;;;;;;4928584;28;100287;-77
2023/07/30 08:36:30;;;;;;;15.18;2.88;;;;;;;;;;4928934;28;99947;-76
2023/07/30 08:38:57;;;;;;;14.85;3.42;;;;;;;;;;4933332;28;99350;-77
2023/07/30 08:41:24;;;;;;;15.77;3.00;;;;;;;;;;4927250;28;99346;-76
2023/07/30 08:43:52;;;;;;;13.98;2.97;;;;;;;;;;4928093;28;100239;-76
2023/07/30 08:46:18;;;;;;;14.98;2.88;;;;;;;;;;4916227;28;101637;-76
2023/07/30 08:48:45;;;;;;;9.02;2.55;;;;;;;;;;4928147;28;100988;-76
2023/07/30 08:51:16;;;;;;;11.45;2.80;;;;;;;;;;4916189;28;99557;-77
2023/07/30 08:53:43;;;;;;;11.75;2.65;;;;;;;;;;4909225;28;99897;-75
2023/07/30 08:56:11;;;;;;;12.57;2.90;;;;;;;;;;4910063;28;99882;-76
2023/07/30 08:58:38;;;;;;;7.90;2.70;;;;;;;;;;4917189;28;100200;-76
2023/07/30 09:01:08;;;;;;;8.27;2.58;;;;;;;;;;4931497;28;100176;-76
2023/07/30 09:03:37;;;;;;;8.23;1.88;;;;;;;;;;4929591;28;99359;-78
2023/07/30 09:06:06;;;;;;;13.40;2.25;;;;;;;;;;4930359;28;98929;-77
2023/07/30 09:08:33;;;;;;;5.90;2.00;;;;;;;;;;4930165;28;99941;-76
2023/07/30 09:11:09;;;;;;;9.43;2.53;;;;;;;;;;4928671;28;100375;-77
2023/07/30 09:13:38;;;;;;;7.65;2.72;;;;;;;;;;4931139;28;98917;-77
2023/07/30 09:16:08;;;;;;;8.77;2.30;;;;;;;;;;4928388;28;99693;-76
2023/07/30 09:18:39;;;;;;;8.98;3.13;;;;;;;;;;4929189;28;101037;-77
2023/07/30 09:21:05;;;;;;;10.70;2.83;;;;;;;;;;4929650;28;99862;-76
2023/07/30 09:23:31;;;;;;;10.43;2.42;;;;;;;;;;4931449;28;100275;-77
2023/07/30 09:25:58;;;;;;;13.57;2.15;;;;;;;;;;4929053;28;99931;-75
2023/07/30 09:28:31;;;;;;;9.50;2.70;;;;;;;;;;4928907;28;98989;-76
2023/07/30 09:31:01;;;;;;;9.80;2.05;;;;;;;;;;4927510;28;100154;-77
2023/07/30 09:33:46;;;;;;;6.18;2.53;;;;;;;;;;4929025;28;100264;-77
2023/07/30 09:36:12;;;;;;;11.70;2.83;;;;;;;;;;4927365;28;100592;-77
2023/07/30 09:38:39;;;;;;;11.27;2.58;;;;;;;;;;4928748;28;100203;-76
2023/07/30 09:41:06;;;;;;;9.75;2.30;;;;;;;;;;4928778;28;99080;-77
2023/07/30 09:43:32;;;;;;;6.55;1.90;;;;;;;;;;4927222;28;99312;-77
2023/07/30 09:46:03;;;;;;;11.57;2.50;;;;;;;;;;4931917;28;100620;-76
2023/07/30 09:48:31;;;;;;;8.18;1.92;;;;;;;;;;4925967;28;101388;-76
2023/07/30 09:51:02;;;;;;;6.43;2.35;;;;;;;;;;4927583;28;100250;-77
2023/07/30 09:53:30;;;;;;;7.10;2.50;;;;;;;;;;4928405;28;99153;-77
2023/07/30 09:55:56;;;;;;;11.07;2.30;;;;;;;;;;4928295;28;99453;-79
2023/07/30 09:58:23;;;;;;;6.25;1.70;;;;;;;;;;4925896;28;99494;-75
2023/07/30 10:00:49;;;;;;;12.50;2.10;;;;;;;;;;4925277;28;99669;-75
2023/07/30 10:03:16;;;;;;;9.85;1.60;;;;;;;;;;4917035;28;99777;-77
2023/07/30 10:05:44;;;;;;;7.25;2.03;;;;;;;;;;4918167;28;100347;-77
2023/07/30 10:08:31;;;;;;;8.35;2.63;;;;;;;;;;4927874;28;99233;-77
2023/07/30 10:10:59;;;;;;;6.38;1.80;;;;;;;;;;4928381;28;100124;-77
2023/07/30 10:13:25;;;;;;;8.70;2.20;;;;;;;;;;4929265;28;99695;-78
2023/07/30 10:15:52;;;;;;;12.32;3.20;;;;;;;;;;4945475;28;99069;-76
2023/07/30 10:18:19;;;;;;;8.55;1.90;;;;;;;;;;4928926;28;99584;-76
2023/07/30 10:20:52;;;;;;;11.43;1.90;;;;;;;;;;4928250;28;99989;-76
2023/07/30 10:23:18;;;;;;;8.25;2.13;;;;;;;;;;4927477;28;99171;-76
2023/07/30 10:25:46;;;;;;;3.17;1.23;;;;;;;;;;4920739;28;101051;-77
2023/07/30 10:28:32;;;;;;;3.90;1.65;;;;;;;;;;4917578;28;99916;-76
2023/07/30 10:31:00;;;;;;;4.63;1.27;;;;;;;;;;4931297;28;100304;-77
2023/07/30 10:33:47;;;;;;;4.70;2.03;;;;;;;;;;4923708;28;98917;-77
2023/07/30 10:36:16;;;;;;;9.10;1.60;;;;;;;;;;4903637;28;99906;-77
2023/07/30 10:38:43;;;;;;;6.03;1.55;;;;;;;;;;4927957;28;100191;-76
2023/07/30 10:41:11;;;;;;;7.95;1.73;;;;;;;;;;4926700;28;99221;-77
2023/07/30 10:43:46;;;;;;;9.88;1.88;;;;;;;;;;4927866;28;99475;-76
2023/07/30 10:46:13;;;;;;;6.70;1.67;;;;;;;;;;4927028;28;99175;-76
2023/07/30 10:48:41;;;;;;;6.28;1.65;;;;;;;;;;4922038;28;99991;-76
2023/07/30 10:51:09;;;;;;;5.85;1.92;;;;;;;;;;4913301;28;99954;-77
2023/07/30 10:53:39;;;;;;;5.25;1.75;;;;;;;;;;4907324;28;99216;-77
2023/07/30 10:56:09;;;;;;;11.77;1.65;;;;;;;;;;4913051;28;99002;-77
2023/07/30 10:58:36;;;;;;;2.28;1.00;;;;;;;;;;4919740;28;99840;-77
2023/07/30 11:01:04;;;;;;;3.22;1.48;;;;;;;;;;4930295;28;99934;-76
2023/07/30 11:03:34;;;;;;;5.25;1.42;;;;;;;;;;4930855;28;100155;-78
2023/07/30 11:06:01;;;;;;;5.68;1.67;;;;;;;;;;4931267;28;99178;-76
2023/07/30 11:08:33;;;;;;;4.03;1.70;;;;;;;;;;4929882;28;99271;-76
2023/07/30 11:11:00;;;;;;;3.67;1.38;;;;;;;;;;4930748;28;99491;-76
2023/07/30 11:13:27;;;;;;;4.93;1.33;;;;;;;;;;4934062;28;100133;-78
2023/07/30 11:15:54;;;;;;;3.63;1.35;;;;;;;;;;4929417;28;99936;-75
2023/07/30 11:18:20;;;;;;;3.08;1.63;;;;;;;;;;4927305;28;100392;-78
2023/07/30 11:20:49;;;;;;;4.03;1.33;;;;;;;;;;4927915;28;99089;-75
2023/07/30 11:23:22;;;;;;;5.72;1.15;;;;;;;;;;4931849;28;100226;-74
2023/07/30 11:25:49;;;;;;;5.22;1.52;;;;;;;;;;4928443;28;99466;-75
2023/07/30 11:28:36;;;;;;;5.63;1.42;;;;;;;;;;4923423;28;99045;-74
2023/07/30 11:31:06;;;;;;;5.00;1.52;;;;;;;;;;4921378;28;100131;-74
2023/07/30 11:33:33;;;;;;;1.90;1.30;;;;;;;;;;4928487;28;99719;-75
2023/07/30 11:36:00;;;;;;;4.75;1.17;;;;;;;;;;4928263;28;99957;-75
2023/07/30 11:38:27;;;;;;;4.53;1.60;;;;;;;;;;4920001;28;99571;-74
2023/07/30 11:40:54;;;;;;;5.43;1.33;;;;;;;;;;4922531;28;101032;-76
2023/07/30 11:43:21;;;;;;;8.13;1.50;;;;;;;;;;4925320;28;100659;-75
2023/07/30 11:45:48;;;;;;;8.40;1.40;;;;;;;;;;4917375;28;100541;-78
2023/07/30 11:48:15;;;;;;;2.17;1.23;;;;;;;;;;4928373;28;100357;-76
2023/07/30 11:50:43;;;;;;;3.33;1.10;;;;;;;;;;4926699;28;99000;-74
2023/07/30 11:53:09;;;;;;;5.28;1.10;;;;;;;;;;4923740;28;100398;-74
2023/07/30 11:55:40;;;;;;;1.30;0.80;;;;;;;;;;4913595;28;100188;-76
2023/07/30 11:58:07;;;;;;;4.10;1.23;;;;;;;;;;4913591;28;99032;-76
2023/07/30 12:00:33;;;;;;;3.97;1.10;;;;;;;;;;4913375;28;99962;-74
2023/07/30 12:03:02;;;;;;;3.20;1.23;;;;;;;;;;4927707;28;100434;-74
2023/07/30 12:05:36;;;;;;;9.57;1.33;;;;;;;;;;4928119;28;101604;-75
2023/07/30 12:08:03;;;;;;;5.38;1.40;;;;;;;;;;4924389;28;99210;-77
2023/07/30 12:10:51;;;;;;;4.13;1.60;;;;;;;;;;4928362;28;99090;-74
2023/07/30 12:13:19;;;;;;;6.97;1.30;;;;;;;;;;4929338;28;99680;-76
2023/07/30 12:15:52;;;;;;;4.10;0.90;;;;;;;;;;4922537;28;101632;-76
2023/07/30 12:18:19;;;;;;;1.70;0.85;;;;;;;;;;4923942;28;100214;-76
2023/07/30 12:20:46;;;;;;;5.85;1.65;;;;;;;;;;4931206;28;100379;-75
2023/07/30 12:23:13;;;;;;;3.50;1.13;;;;;;;;;;4924553;28;99904;-76
2023/07/30 12:25:40;;;;;;;3.53;1.15;;;;;;;;;;4921864;28;99464;-75
2023/07/30 12:28:06;;;;;;;4.50;1.00;;;;;;;;;;4917378;28;100227;-76
2023/07/30 12:30:33;;;;;;;10.15;1.60;;;;;;;;;;4921592;28;100350;-75
2023/07/30 12:33:00;;;;;;;6.43;1.48;;;;;;;;;;4921876;28;100189;-75
2023/07/30 12:35:26;;;;;;;6.97;1.23;;;;;;;;;;4919564;28;100293;-75
2023/07/30 12:37:53;;;;;;;8.07;1.27;;;;;;;;;;4924974;28;99775;-74
2023/07/30 12:40:19;;;;;;;3.00;0.88;;;;;;;;;;4930169;28;99247;-75
2023/07/30 12:42:46;;;;;;;2.30;1.10;;;;;;;;;;4933172;28;98543;-74
2023/07/30 12:45:12;;;;;;;3.05;1.10;;;;;;;;;;4919934;28;100230;-74
2023/07/30 12:47:39;;;;;;;3.47;1.05;;;;;;;;;;4913790;28;99912;-74
2023/07/30 12:50:06;;;;;;;3.95;0.88;;;;;;;;;;4912049;28;99474;-75
2023/07/30 12:52:33;;;;;;;4.07;0.95;;;;;;;;;;4928905;28;99280;-74
2023/07/30 12:55:00;;;;;;;3.63;0.80;;;;;;;;;;4928150;28;99271;-75
2023/07/30 12:57:28;;;;;;;1.45;0.75;;;;;;;;;;4927627;28;99780;-76
2023/07/30 12:59:54;;;;;;;6.20;1.27;;;;;;;;;;4924704;28;100344;-77
2023/07/30 13:02:20;;;;;;;5.18;1.05;;;;;;;;;;4930509;28;99968;-75
2023/07/30 13:04:47;;;;;;;3.03;1.10;;;;;;;;;;4928045;28;100203;-76
2023/07/30 13:07:13;;;;;;;4.43;1.02;;;;;;;;;;4922834;28;99939;-75
2023/07/30 13:09:40;;;;;;;2.97;1.08;;;;;;;;;;4915871;28;99481;-74
2023/07/30 13:12:07;;;;;;;4.32;1.02;;;;;;;;;;4929664;28;99380;-75
2023/07/30 13:14:33;;;;;;;2.97;0.80;;;;;;;;;;4927588;28;99981;-74
2023/07/30 13:16:59;;;;;;;3.38;1.13;;;;;;;;;;4931035;28;99030;-74
2023/07/30 13:19:28;;;;;;;4.88;1.20;;;;;;;;;;4941538;28;99241;-76
2023/07/30 13:21:54;;;;;;;5.28;1.25;;;;;;;;;;4935527;28;99622;-74
2023/07/30 13:24:21;;;;;;;3.53;1.10;;;;;;;;;;4929664;28;99879;-76
2023/07/30 13:26:47;;;;;;;7.28;1.08;;;;;;;;;;4929065;28;99947;-76
2023/07/30 13:29:13;;;;;;;2.55;0.90;;;;;;;;;;4924106;28;99856;-74
2023/07/30 13:31:40;;;;;;;2.85;0.95;;;;;;;;;;4926199;28;99395;-76
2023/07/30 13:34:07;;;;;;;5.97;1.48;;;;;;;;;;4928854;28;99344;-75
2023/07/30 13:36:34;;;;;;;3.97;1.27;;;;;;;;;;4925682;28;99138;-75
2023/07/30 13:39:00;;;;;;;5.82;1.33;;;;;;;;;;4924148;28;99530;-75
2023/07/30 13:41:27;;;;;;;2.70;1.25;;;;;;;;;;4925197;28;99120;-77
2023/07/30 13:43:53;;;;;;;7.50;1.35;;;;;;;;;;4927492;28;99129;-76
2023/07/30 13:46:20;;;;;;;4.25;1.13;;;;;;;;;;4931161;28;100637;-75
2023/07/30 13:48:46;;;;;;;3.28;1.00;;;;;;;;;;4928179;28;100059;-75
2023/07/30 13:51:13;;;;;;;4.07;1.02;;;;;;;;;;4925813;28;100068;-75
2023/07/30 13:53:41;;;;;;;1.23;0.88;;;;;;;;;;4925385;28;99144;-74
2023/07/30 13:56:07;;;;;;;1.52;0.90;;;;;;;;;;4926969;28;100187;-75
2023/07/30 13:58:34;;;;;;;2.13;0.77;;;;;;;;;;4927133;28;99743;-74
2023/07/30 14:01:00;;;;;;;5.43;1.30;;;;;;;;;;4927504;28;100112;-75
2023/07/30 14:03:27;;;;;;;8.45;1.38;;;;;;;;;;4924845;28;99472;-75
2023/07/30 14:05:53;;;;;;;2.72;0.90;;;;;;;;;;4925710;28;100279;-75
2023/07/30 14:08:20;;;;;;;2.92;1.27;;;;;;;;;;4927638;28;99922;-75
2023/07/30 14:10:47;;;;;;;2.78;1.08;;;;;;;;;;4924872;28;99473;-75
2023/07/30 14:13:14;;;;;;;3.72;1.08;;;;;;;;;;4924203;28;99420;-74
2023/07/30 14:15:41;;;;;;;2.38;1.05;;;;;;;;;;4928316;28;98957;-76
2023/07/30 14:18:09;;;;;;;5.65;1.17;;;;;;;;;;4926431;28;99532;-75
2023/07/30 14:20:37;;;;;;;5.88;1.23;;;;;;;;;;4926243;28;100097;-74
2023/07/30 14:23:04;;;;;;;3.88;1.15;;;;;;;;;;4919783;28;101012;-75
2023/07/30 14:25:30;;;;;;;7.05;1.05;;;;;;;;;;4915665;28;98739;-74
2023/07/30 14:27:57;;;;;;;5.95;2.15;;;;;;;;;;4923823;28;99039;-74
2023/07/30 14:30:23;;;;;;;5.78;1.30;;;;;;;;;;4916459;28;99039;-74
2023/07/30 14:32:50;;;;;;;4.00;1.23;;;;;;;;;;4921369;28;101398;-74